MUCM/CMW METAR and TAF weather

Enter ICAO airport designator
Station Type Date Time Source
MUCM METAR 2019/02/22 22:50 UTC NOAA

MUCM 222250Z 05016KT 9000 FEW020 27/20 Q1018


Station Type Date Time Source
MUCM Decoded METAR 2019/02/22 22:50 UTC NOAA

Camaguey Aeropuerto, Cuba (MUCM) 21-25N 077-51W 118M
Feb 22, 2019 - 05:50 PM EST / 2019.02.22 2250 UTC
Wind: from the NE (050 degrees) at 18 MPH (16 KT):0
Visibility: 5 mile(s):0
Sky conditions: mostly clear
Temperature: 80 F (27 C)
Dew Point: 68 F (20 C)
Relative Humidity: 65%
Pressure (altimeter): 30.06 in. Hg (1018 hPa)
ob: MUCM 222250Z 05016KT 9000 FEW020 27/20 Q1018
cycle: 23

Station Type Date Time Source
MUCM TAF 2019/02/22 18:07 UTC NOAA

TAF MUCM 221700Z 2218/2318 07012KT 9000 SCT020
BECMG 2301/2303 05007KT FEW020
BECMG 2315/2317 06012KT SCT020


Example: see airport list